createdAt,value
2023-03-24T00:00:18.429Z,9.10
2023-03-24T00:02:46.683Z,9.09
2023-03-24T00:05:16.307Z,9.15
2023-03-24T00:07:43.497Z,9.18
2023-03-24T00:10:18.290Z,9.20
2023-03-24T00:12:47.044Z,9.19
2023-03-24T00:15:19.288Z,9.16
2023-03-24T00:17:52.426Z,9.18
2023-03-24T00:20:22.125Z,9.14
2023-03-24T00:22:56.658Z,9.17
2023-03-24T00:25:28.050Z,9.25
2023-03-24T00:27:57.453Z,9.31
2023-03-24T00:30:25.310Z,9.37
2023-03-24T00:32:52.550Z,9.38
2023-03-24T00:35:19.713Z,9.39
2023-03-24T00:37:46.948Z,9.42
2023-03-24T00:40:18.111Z,9.44
2023-03-24T00:42:46.732Z,9.54
2023-03-24T00:45:23.579Z,9.53
2023-03-24T00:47:54.625Z,9.56
2023-03-24T00:50:27.156Z,9.60
2023-03-24T00:52:55.241Z,9.55
2023-03-24T00:55:23.223Z,9.59
2023-03-24T00:57:50.850Z,9.53
2023-03-24T01:00:24.521Z,9.56
2023-03-24T01:02:54.668Z,9.53
2023-03-24T01:05:24.326Z,9.54
2023-03-24T01:07:52.329Z,9.51
2023-03-24T01:10:21.873Z,9.53
2023-03-24T01:12:48.943Z,9.54
2023-03-24T01:15:21.363Z,9.54
2023-03-24T01:17:48.826Z,9.44
2023-03-24T01:20:16.807Z,9.49
2023-03-24T01:22:45.034Z,9.47
2023-03-24T01:25:21.651Z,9.46
2023-03-24T01:27:49.704Z,9.50
2023-03-24T01:30:19.259Z,9.52
2023-03-24T01:32:46.313Z,9.57
2023-03-24T01:35:13.233Z,9.64
2023-03-24T01:37:40.340Z,9.70
2023-03-24T01:40:10.751Z,9.76
2023-03-24T01:42:39.436Z,9.76
2023-03-24T01:45:34.604Z,9.81
2023-03-24T01:48:01.822Z,9.82
2023-03-24T01:50:29.938Z,9.77
2023-03-24T01:52:56.996Z,9.83
2023-03-24T01:55:24.063Z,9.91
2023-03-24T01:57:56.513Z,9.89
2023-03-24T02:00:23.994Z,9.93
2023-03-24T02:02:58.808Z,9.97
2023-03-24T02:05:33.262Z,10.00
2023-03-24T02:08:10.860Z,9.97
2023-03-24T02:10:38.484Z,9.93
2023-03-24T02:13:06.425Z,9.95
2023-03-24T02:15:40.641Z,9.96
2023-03-24T02:18:21.820Z,9.95
2023-03-24T02:21:21.474Z,9.93
2023-03-24T02:23:52.066Z,9.90
2023-03-24T02:26:30.937Z,9.91
2023-03-24T02:29:29.256Z,9.96
2023-03-24T02:32:26.822Z,9.92
2023-03-24T02:35:02.727Z,9.93
2023-03-24T02:37:51.224Z,9.94
2023-03-24T02:40:33.779Z,9.94
2023-03-24T02:43:06.895Z,9.92
2023-03-24T02:45:46.295Z,9.86
2023-03-24T02:48:16.194Z,9.86
2023-03-24T02:51:01.318Z,9.86
2023-03-24T02:53:44.527Z,9.86
2023-03-24T02:56:30.110Z,9.84
2023-03-24T02:59:06.866Z,9.86
2023-03-24T03:01:43.417Z,9.84
2023-03-24T03:04:19.638Z,9.83
2023-03-24T03:06:52.879Z,9.78
2023-03-24T03:09:21.607Z,9.80
2023-03-24T03:11:51.617Z,9.82
2023-03-24T03:14:24.317Z,9.79
2023-03-24T03:16:59.890Z,9.76
2023-03-24T03:19:34.030Z,9.78
2023-03-24T03:22:04.623Z,9.77
2023-03-24T03:24:37.335Z,9.76
2023-03-24T03:27:09.917Z,9.78
2023-03-24T03:29:44.627Z,9.76
2023-03-24T03:32:18.022Z,9.75
2023-03-24T03:35:05.547Z,9.71
2023-03-24T03:37:46.021Z,9.77
2023-03-24T03:40:27.032Z,9.78
2023-03-24T03:42:54.048Z,9.77
2023-03-24T03:45:20.935Z,9.78
2023-03-24T03:47:48.293Z,9.79
2023-03-24T03:50:15.648Z,9.81
2023-03-24T03:52:44.611Z,9.78
2023-03-24T03:55:12.271Z,9.80
2023-03-24T03:57:39.316Z,9.79
2023-03-24T04:00:11.835Z,9.76
2023-03-24T04:02:44.552Z,9.77
2023-03-24T04:05:29.180Z,9.78
2023-03-24T04:08:18.255Z,9.77
2023-03-24T04:10:58.061Z,9.76
2023-03-24T04:13:40.363Z,9.77
2023-03-24T04:16:16.392Z,9.71
2023-03-24T04:19:26.263Z,9.72
2023-03-24T04:21:59.224Z,9.75
2023-03-24T04:24:42.936Z,9.76
2023-03-24T04:27:17.397Z,9.74
2023-03-24T04:29:58.220Z,9.76
2023-03-24T04:32:35.589Z,9.75
2023-03-24T04:35:07.322Z,9.76
2023-03-24T04:37:38.172Z,9.75
2023-03-24T04:40:10.954Z,9.77
2023-03-24T04:42:42.686Z,9.77
2023-03-24T04:45:10.057Z,9.78
2023-03-24T04:47:43.289Z,9.82
2023-03-24T04:50:11.937Z,9.81
2023-03-24T04:52:41.018Z,9.84
2023-03-24T04:55:27.668Z,9.84
2023-03-24T04:57:54.492Z,9.85
2023-03-24T05:00:21.217Z,9.90
2023-03-24T05:02:47.967Z,9.86
2023-03-24T05:05:16.039Z,9.85
2023-03-24T05:07:44.008Z,9.85
2023-03-24T05:10:11.781Z,9.85
2023-03-24T05:12:38.588Z,9.97
2023-03-24T05:15:06.944Z,9.93
2023-03-24T05:17:33.797Z,9.91
2023-03-24T05:20:00.561Z,9.88
2023-03-24T05:22:27.508Z,9.90
2023-03-24T05:24:54.193Z,9.86
2023-03-24T05:27:21.230Z,9.90
2023-03-24T05:29:48.028Z,9.96
2023-03-24T05:32:15.393Z,9.94
2023-03-24T05:34:42.467Z,9.99
2023-03-24T05:37:12.088Z,9.98
2023-03-24T05:39:38.979Z,9.98
2023-03-24T05:42:06.020Z,10.00
2023-03-24T05:44:32.765Z,10.01
2023-03-24T05:46:59.621Z,10.01
2023-03-24T05:49:26.588Z,10.03
2023-03-24T05:51:53.338Z,10.06
2023-03-24T05:54:20.166Z,10.07
2023-03-24T05:56:47.010Z,10.04
2023-03-24T05:59:14.058Z,10.05
2023-03-24T06:01:42.281Z,10.08
2023-03-24T06:04:09.665Z,10.12
2023-03-24T06:06:38.479Z,10.18
2023-03-24T06:09:05.362Z,10.21
2023-03-24T06:11:32.368Z,10.19
2023-03-24T06:14:00.567Z,10.20
2023-03-24T06:16:27.549Z,10.23
2023-03-24T06:18:54.399Z,10.24
2023-03-24T06:21:22.017Z,10.23
2023-03-24T06:23:48.881Z,10.28
2023-03-24T06:26:16.669Z,10.33
2023-03-24T06:28:43.738Z,10.41
2023-03-24T06:31:19.398Z,10.38
2023-03-24T06:33:50.250Z,10.46
2023-03-24T06:36:18.261Z,10.48
2023-03-24T06:38:45.568Z,10.54
2023-03-24T06:41:12.813Z,10.59
2023-03-24T06:43:39.586Z,10.67
2023-03-24T06:46:06.639Z,10.63
2023-03-24T06:48:33.756Z,10.62
2023-03-24T06:51:00.486Z,10.68
2023-03-24T06:53:27.286Z,10.77
2023-03-24T06:55:54.028Z,10.86
2023-03-24T06:58:21.555Z,10.90
2023-03-24T07:00:48.616Z,11.02
2023-03-24T07:03:16.554Z,11.02
2023-03-24T07:05:45.661Z,11.04
2023-03-24T07:10:43.948Z,11.08
2023-03-24T07:13:11.562Z,11.04
2023-03-24T07:15:38.209Z,11.07
2023-03-24T07:18:05.066Z,11.02
2023-03-24T07:20:32.017Z,11.10
2023-03-24T07:22:58.990Z,11.12
2023-03-24T07:25:26.183Z,11.17
2023-03-24T07:27:56.969Z,11.23
2023-03-24T07:30:33.423Z,11.25
2023-03-24T07:33:07.954Z,11.29
2023-03-24T07:35:35.282Z,11.40
2023-03-24T07:38:02.253Z,11.42
2023-03-24T07:40:30.613Z,11.42
2023-03-24T07:43:01.380Z,11.45
2023-03-24T07:45:28.531Z,11.43
2023-03-24T07:47:57.291Z,11.51
2023-03-24T07:50:24.203Z,11.47
2023-03-24T07:52:51.146Z,11.47
2023-03-24T07:55:18.003Z,11.41
2023-03-24T07:57:49.381Z,11.43
2023-03-24T08:00:17.984Z,11.42
2023-03-24T08:02:46.765Z,11.41
2023-03-24T08:05:14.761Z,11.43
2023-03-24T08:07:43.101Z,11.42
2023-03-24T08:10:12.729Z,11.46
2023-03-24T08:12:39.923Z,11.54
2023-03-24T08:15:07.931Z,11.53
2023-03-24T08:17:35.857Z,11.59
2023-03-24T08:20:14.476Z,11.61
2023-03-24T08:22:43.089Z,11.67
2023-03-24T08:25:12.215Z,11.66
2023-03-24T08:27:40.469Z,11.71
2023-03-24T08:30:10.463Z,11.73
2023-03-24T08:32:37.697Z,11.66
2023-03-24T08:35:05.230Z,11.69
2023-03-24T08:37:32.202Z,11.69
2023-03-24T08:40:05.506Z,11.69
2023-03-24T08:42:32.339Z,11.75
2023-03-24T08:44:59.240Z,11.83
2023-03-24T08:47:26.330Z,11.94
2023-03-24T08:49:57.673Z,11.98
2023-03-24T08:52:25.313Z,12.06
2023-03-24T08:54:52.539Z,12.07
2023-03-24T08:57:19.303Z,12.02
2023-03-24T08:59:46.656Z,12.07
2023-03-24T09:02:14.204Z,12.08
2023-03-24T09:04:42.881Z,12.15
2023-03-24T09:07:10.615Z,12.12
2023-03-24T09:09:37.401Z,12.08
2023-03-24T09:12:04.518Z,12.10
2023-03-24T09:14:31.291Z,12.13
2023-03-24T09:16:58.059Z,12.12
2023-03-24T09:19:25.173Z,12.12
2023-03-24T09:21:51.901Z,12.12
2023-03-24T09:24:18.782Z,12.15
2023-03-24T09:26:46.050Z,12.31
2023-03-24T09:29:15.169Z,12.66
2023-03-24T09:31:42.322Z,12.89
2023-03-24T09:34:09.056Z,12.91
2023-03-24T09:36:36.185Z,12.84
2023-03-24T09:39:03.235Z,13.25
2023-03-24T09:41:34.248Z,14.22
2023-03-24T09:44:13.375Z,14.63
2023-03-24T09:46:42.975Z,14.49
2023-03-24T09:49:16.675Z,14.37
2023-03-24T09:51:45.599Z,15.42
2023-03-24T09:54:26.180Z,14.98
2023-03-24T09:56:54.421Z,14.77
2023-03-24T09:59:26.544Z,15.21
2023-03-24T10:01:53.543Z,14.89
2023-03-24T10:04:24.404Z,14.78
2023-03-24T10:06:59.632Z,14.74
2023-03-24T10:09:35.404Z,15.26
2023-03-24T10:12:15.381Z,16.13
2023-03-24T10:14:51.589Z,16.74
2023-03-24T10:17:46.613Z,17.58
2023-03-24T10:20:32.147Z,18.12
2023-03-24T10:23:08.496Z,17.72
2023-03-24T10:25:41.292Z,18.19
2023-03-24T10:28:32.390Z,19.20
2023-03-24T10:31:05.230Z,17.41
2023-03-24T10:33:34.414Z,17.01
2023-03-24T10:36:08.018Z,16.87
2023-03-24T10:38:35.707Z,16.65
2023-03-24T10:41:02.770Z,15.62
2023-03-24T10:43:30.811Z,15.33
2023-03-24T10:45:59.921Z,15.65
2023-03-24T10:48:47.347Z,15.10
2023-03-24T10:51:18.087Z,15.93
2023-03-24T10:53:48.582Z,16.79
2023-03-24T10:56:38.214Z,16.20
2023-03-24T10:59:32.054Z,15.24
2023-03-24T11:02:01.309Z,15.24
2023-03-24T11:04:30.765Z,14.83
2023-03-24T11:07:21.803Z,14.47
2023-03-24T11:10:05.266Z,14.15
2023-03-24T11:12:35.979Z,15.95
2023-03-24T11:15:22.977Z,17.08
2023-03-24T11:17:56.860Z,17.73
2023-03-24T11:20:35.471Z,17.25
2023-03-24T11:23:04.614Z,18.21
2023-03-24T11:25:38.098Z,17.08
2023-03-24T11:28:14.525Z,16.85
2023-03-24T11:30:49.982Z,16.00
2023-03-24T11:33:35.809Z,15.39
2023-03-24T11:36:30.742Z,15.06
2023-03-24T11:39:22.624Z,15.00
2023-03-24T11:42:05.190Z,15.01
2023-03-24T11:44:49.385Z,15.61
2023-03-24T11:47:24.148Z,16.85
2023-03-24T11:50:09.279Z,17.77
2023-03-24T11:52:49.058Z,18.48
2023-03-24T11:55:37.746Z,18.61
2023-03-24T11:58:24.971Z,19.41
2023-03-24T12:00:58.723Z,18.12
2023-03-24T12:04:02.739Z,17.00
2023-03-24T12:07:07.108Z,16.12
2023-03-24T12:10:12.568Z,15.65
2023-03-24T12:13:04.637Z,15.16
2023-03-24T12:15:52.092Z,14.66
2023-03-24T12:18:51.740Z,14.38
2023-03-24T12:21:51.692Z,14.25
2023-03-24T12:24:27.518Z,14.34
2023-03-24T12:27:00.922Z,14.60
2023-03-24T12:29:42.754Z,15.19
2023-03-24T12:32:30.986Z,15.15
2023-03-24T12:35:24.695Z,15.14
2023-03-24T12:38:16.595Z,15.70
2023-03-24T12:40:46.242Z,15.76
2023-03-24T12:43:22.050Z,15.01
2023-03-24T12:45:53.234Z,14.84
2023-03-24T12:48:36.035Z,14.79
2023-03-24T12:51:30.294Z,16.08
2023-03-24T12:54:15.837Z,17.06
2023-03-24T12:57:08.346Z,17.20
2023-03-24T12:59:48.663Z,18.25
2023-03-24T13:02:35.124Z,18.13
2023-03-24T13:05:07.406Z,18.26
2023-03-24T13:07:43.773Z,18.24
2023-03-24T13:10:20.385Z,18.63
2023-03-24T13:13:13.501Z,19.22
2023-03-24T13:15:46.749Z,18.96
2023-03-24T13:18:26.174Z,18.63
2023-03-24T13:21:15.217Z,19.27
2023-03-24T13:24:08.768Z,19.76
2023-03-24T13:26:55.682Z,19.94
2023-03-24T13:29:49.549Z,20.31
2023-03-24T13:32:23.835Z,19.56
2023-03-24T13:35:15.864Z,19.91
2023-03-24T13:37:52.206Z,19.55
2023-03-24T13:40:25.980Z,19.39
2023-03-24T13:42:56.868Z,19.77
2023-03-24T13:45:38.741Z,19.80
2023-03-24T13:48:18.194Z,19.69
2023-03-24T13:51:03.021Z,20.11
2023-03-24T13:53:45.409Z,20.03
2023-03-24T13:56:22.108Z,19.58
2023-03-24T13:58:57.953Z,20.37
2023-03-24T14:01:38.763Z,20.80
2023-03-24T14:04:43.838Z,20.01
2023-03-24T14:07:42.697Z,19.48
2023-03-24T14:10:15.666Z,19.87
2023-03-24T14:13:11.957Z,20.04
2023-03-24T14:15:53.572Z,19.69
2023-03-24T14:18:23.664Z,19.96
2023-03-24T14:20:56.834Z,20.02
2023-03-24T14:23:48.142Z,20.54
2023-03-24T14:26:36.677Z,19.90
2023-03-24T14:29:03.922Z,20.26
2023-03-24T14:31:33.304Z,20.44
2023-03-24T14:34:10.765Z,20.22
2023-03-24T14:36:41.960Z,20.50
2023-03-24T14:39:30.204Z,20.58
2023-03-24T14:41:59.037Z,19.99
2023-03-24T14:44:44.629Z,19.84
2023-03-24T14:47:15.607Z,19.65
2023-03-24T14:49:45.203Z,19.63
2023-03-24T14:52:20.843Z,19.02
2023-03-24T14:55:04.180Z,17.99
2023-03-24T14:57:34.703Z,17.68
2023-03-24T15:00:29.675Z,17.43
2023-03-24T15:03:01.675Z,16.59
2023-03-24T15:05:31.264Z,16.73
2023-03-24T15:08:08.474Z,16.18
2023-03-24T15:10:52.634Z,16.24
2023-03-24T15:13:41.618Z,16.16
2023-03-24T15:16:11.404Z,16.20
2023-03-24T15:19:01.495Z,16.19
2023-03-24T15:21:35.747Z,16.30
2023-03-24T15:24:23.199Z,16.17
2023-03-24T15:26:52.963Z,15.98
2023-03-24T15:29:20.700Z,15.77
2023-03-24T15:31:47.818Z,15.96
2023-03-24T15:34:30.722Z,16.15
2023-03-24T15:37:04.405Z,15.96
2023-03-24T15:39:36.909Z,16.05
2023-03-24T15:42:09.405Z,16.14
2023-03-24T15:44:41.215Z,15.98
2023-03-24T15:47:19.945Z,16.06
2023-03-24T15:49:53.477Z,16.18
2023-03-24T15:52:35.440Z,16.64
2023-03-24T15:55:22.794Z,16.33
2023-03-24T15:57:49.669Z,16.67
2023-03-24T16:00:23.474Z,17.03
2023-03-24T16:02:53.461Z,16.75
2023-03-24T16:05:26.711Z,16.44
2023-03-24T16:08:04.180Z,15.74
2023-03-24T16:10:45.111Z,15.84
2023-03-24T16:13:22.917Z,15.81
2023-03-24T16:15:58.811Z,15.84
2023-03-24T16:18:33.628Z,16.00
2023-03-24T16:21:02.303Z,16.08
2023-03-24T16:23:32.707Z,16.13
2023-03-24T16:25:59.473Z,16.00
2023-03-24T16:28:27.619Z,16.29
2023-03-24T16:31:01.106Z,16.29
2023-03-24T16:33:28.162Z,15.76
2023-03-24T16:35:54.974Z,15.55
2023-03-24T16:38:21.822Z,15.39
2023-03-24T16:40:54.044Z,15.30
2023-03-24T16:43:21.986Z,15.03
2023-03-24T16:45:50.449Z,15.09
2023-03-24T16:48:17.758Z,14.57
2023-03-24T16:50:50.614Z,14.29
2023-03-24T16:53:18.102Z,14.26
2023-03-24T16:55:45.174Z,14.06
2023-03-24T16:58:17.163Z,13.89
2023-03-24T17:00:45.514Z,13.75
2023-03-24T17:03:13.975Z,13.60
2023-03-24T17:05:48.480Z,13.66
2023-03-24T17:08:16.700Z,13.55
2023-03-24T17:10:44.462Z,13.45
2023-03-24T17:13:21.577Z,13.47
2023-03-24T17:15:48.486Z,13.40
2023-03-24T17:18:15.854Z,13.29
2023-03-24T17:20:42.564Z,13.16
2023-03-24T17:23:11.509Z,13.07
2023-03-24T17:25:38.365Z,12.91
2023-03-24T17:28:12.450Z,12.82
2023-03-24T17:30:39.208Z,12.78
2023-03-24T17:33:06.924Z,12.55
2023-03-24T17:35:33.778Z,12.51
2023-03-24T17:38:01.447Z,12.43
2023-03-24T17:40:28.198Z,12.35
2023-03-24T17:42:54.930Z,12.27
2023-03-24T17:45:21.690Z,12.06
2023-03-24T17:47:48.550Z,11.91
2023-03-24T17:50:15.430Z,11.85
2023-03-24T17:52:47.462Z,11.74
2023-03-24T17:55:16.525Z,11.61
2023-03-24T17:57:43.862Z,11.44
2023-03-24T18:00:12.804Z,11.28
2023-03-24T18:02:41.236Z,11.23
2023-03-24T18:05:09.499Z,11.18
2023-03-24T18:07:36.354Z,11.12
2023-03-24T18:10:03.239Z,11.08
2023-03-24T18:12:30.278Z,10.92
2023-03-24T18:14:56.958Z,11.01
2023-03-24T18:17:23.728Z,11.05
2023-03-24T18:19:51.099Z,11.03
2023-03-24T18:22:17.902Z,10.94
2023-03-24T18:24:44.777Z,10.83
2023-03-24T18:27:11.787Z,10.79
2023-03-24T18:29:38.916Z,10.60
2023-03-24T18:32:06.235Z,10.45
2023-03-24T18:34:33.161Z,10.37
2023-03-24T18:36:59.881Z,10.24
2023-03-24T18:39:27.025Z,10.16
2023-03-24T18:41:53.959Z,10.19
2023-03-24T18:44:21.668Z,10.09
2023-03-24T18:46:48.999Z,9.99
2023-03-24T18:49:16.912Z,9.95
2023-03-24T18:51:45.315Z,9.90
2023-03-24T18:54:13.120Z,9.91
2023-03-24T18:56:39.902Z,9.74
2023-03-24T18:59:06.998Z,9.64
2023-03-24T19:01:35.798Z,9.70
2023-03-24T19:04:02.944Z,9.66
2023-03-24T19:06:34.329Z,9.81
2023-03-24T19:09:01.570Z,9.83
2023-03-24T19:11:28.293Z,9.84
2023-03-24T19:13:56.608Z,10.10
2023-03-24T19:16:23.545Z,10.22
2023-03-24T19:18:50.952Z,10.23
2023-03-24T19:21:19.150Z,10.18
2023-03-24T19:23:46.764Z,10.26
2023-03-24T19:26:16.445Z,10.28
2023-03-24T19:28:43.863Z,10.25
2023-03-24T19:31:14.974Z,10.38
2023-03-24T19:33:41.919Z,10.46
2023-03-24T19:36:09.163Z,10.59
2023-03-24T19:38:39.509Z,10.56
2023-03-24T19:41:08.403Z,10.59
2023-03-24T19:43:36.665Z,10.59
2023-03-24T19:46:04.714Z,10.54
2023-03-24T19:48:31.706Z,10.60
2023-03-24T19:50:58.729Z,10.52
2023-03-24T19:53:26.709Z,10.62
2023-03-24T19:55:57.336Z,10.54
2023-03-24T19:58:24.399Z,10.53
2023-03-24T20:00:52.258Z,10.51
2023-03-24T20:03:19.491Z,10.56
2023-03-24T20:05:46.566Z,10.54
2023-03-24T20:08:13.691Z,10.48
2023-03-24T20:10:40.478Z,10.51
2023-03-24T20:13:09.084Z,10.40
2023-03-24T20:15:36.484Z,10.45
2023-03-24T20:18:03.901Z,10.41
2023-03-24T20:20:31.655Z,10.34
2023-03-24T20:22:58.563Z,10.37
2023-03-24T20:25:25.345Z,10.35
2023-03-24T20:27:52.366Z,10.33
2023-03-24T20:30:20.684Z,10.30
2023-03-24T20:32:47.870Z,10.38
2023-03-24T20:35:14.724Z,10.27
2023-03-24T20:37:41.913Z,10.27
2023-03-24T20:40:09.637Z,10.21
2023-03-24T20:42:37.328Z,10.25
2023-03-24T20:45:06.727Z,10.24
2023-03-24T20:47:34.068Z,10.19
2023-03-24T20:50:01.284Z,10.14
2023-03-24T20:52:29.099Z,10.12
2023-03-24T20:54:56.549Z,10.06
2023-03-24T20:57:25.799Z,10.00
2023-03-24T20:59:52.765Z,9.99
2023-03-24T21:02:20.441Z,9.94
2023-03-24T21:04:47.397Z,9.99
2023-03-24T21:07:14.498Z,9.94
2023-03-24T21:09:41.383Z,9.97
2023-03-24T21:12:09.508Z,9.91
2023-03-24T21:14:36.643Z,9.90
2023-03-24T21:17:03.639Z,9.83
2023-03-24T21:19:30.488Z,9.79
2023-03-24T21:21:57.602Z,9.78
2023-03-24T21:24:24.630Z,9.74
2023-03-24T21:26:53.894Z,9.69
2023-03-24T21:29:22.585Z,9.67
2023-03-24T21:31:50.154Z,9.64
2023-03-24T21:34:17.278Z,9.67
2023-03-24T21:36:44.199Z,9.69
2023-03-24T21:39:12.197Z,9.59
2023-03-24T21:41:39.819Z,9.51
2023-03-24T21:44:09.471Z,9.52
2023-03-24T21:46:37.165Z,9.44
2023-03-24T21:49:05.001Z,9.42
2023-03-24T21:51:37.112Z,9.40
2023-03-24T21:54:06.636Z,9.35
2023-03-24T21:56:35.130Z,9.31
2023-03-24T21:59:02.190Z,9.27
2023-03-24T22:01:29.273Z,9.20
2023-03-24T22:03:58.796Z,9.26
2023-03-24T22:06:29.378Z,9.26
2023-03-24T22:08:58.578Z,9.16
2023-03-24T22:11:26.085Z,9.17
2023-03-24T22:13:53.793Z,9.20
2023-03-24T22:16:21.066Z,9.16
2023-03-24T22:18:47.935Z,9.10
2023-03-24T22:21:15.171Z,9.11
2023-03-24T22:23:42.815Z,9.07
2023-03-24T22:26:15.631Z,9.04
2023-03-24T22:28:43.382Z,9.07
2023-03-24T22:31:16.247Z,9.07
2023-03-24T22:33:44.189Z,9.04
2023-03-24T22:36:11.650Z,9.08
2023-03-24T22:38:38.445Z,9.06
2023-03-24T22:41:07.814Z,9.07
2023-03-24T22:43:35.849Z,9.02
2023-03-24T22:46:03.753Z,8.86
2023-03-24T22:48:30.821Z,8.88
2023-03-24T22:50:57.567Z,8.82
2023-03-24T22:53:24.559Z,8.80
2023-03-24T22:55:52.368Z,8.77
2023-03-24T22:58:19.657Z,8.78
2023-03-24T23:00:48.357Z,8.71
2023-03-24T23:03:15.658Z,8.66
2023-03-24T23:05:45.542Z,8.62
2023-03-24T23:08:14.460Z,8.59
2023-03-24T23:10:44.213Z,8.51
2023-03-24T23:13:11.567Z,8.52
2023-03-24T23:15:39.835Z,8.38
2023-03-24T23:18:06.792Z,8.36
2023-03-24T23:20:33.706Z,8.42
2023-03-24T23:23:01.382Z,8.52
2023-03-24T23:25:31.185Z,8.43
2023-03-24T23:27:58.819Z,8.34
2023-03-24T23:30:26.046Z,8.27
2023-03-24T23:32:53.105Z,8.38
2023-03-24T23:35:20.278Z,8.31
2023-03-24T23:37:47.055Z,8.35
2023-03-24T23:40:15.657Z,8.29
2023-03-24T23:42:46.450Z,8.27
2023-03-24T23:45:17.838Z,8.30
2023-03-24T23:47:47.651Z,8.21
2023-03-24T23:50:17.885Z,8.24
2023-03-24T23:52:44.785Z,8.21
2023-03-24T23:55:13.456Z,8.22
2023-03-24T23:57:42.542Z,8.26
